Main page
METAR-TAF:

METAR-TAF

Airports :

Rijeka Airport

Rijeka, Croatia

latitude: 45-13N, longitude: 014-35E, elevation: 85 m

Current weather observation

The report was made 25 minutes ago, at 14:00 UTC
Wind 8 kt from the Southwest, varying between South and West
Temperature 13°C
Humidity 47%
Pressure 1031 hPa
Visibility 10 km or more
no clouds below 1500 m and no cumulonimbus

METAR: LDRI 221400Z 22008KT 180V270 CAVOK 13/02 Q1031

Time: 15:25 (14:25 UTC)

Forecast

The report was made 3 hours and 22 minutes ago, at 11:03 UTC
Forecast valid from 22 at 12 UTC to 23 at 12 UTC
Wind 5 kt from the South/Southwest
Visibility 10 km or more
no clouds below 1500 m and no cumulonimbus
Becoming
from 23 at 06 UTC to 23 at 08 UTC
Wind 6 kt from the Southeast

TAF: LDRI 221103Z 2212/2312 21005KT CAVOK TX14/2213Z TN06/2305Z BECMG 2306/2308 14006KT

Weather observations and forecasts of more than 4000 airports (METAR and TAF reports).

The available stations are represented by yellow and red dots on the map.

Hover mouse over dot to see the name of the station.

Then click to see weather observations and forecasts.

To change the map : click on the green buttons with a black cross to zoom in, on the green button with a dash to zoom out, or on the green arrows for adjacent maps.


METAR-TAF: